Hlavní strana
METAR-TAF:

METAR-TAF

Letiště :

Paulatuk, Severozápadní teritoria, Kanada

zeměpisná šířka: 69-21N, zeměpisná délka: 124-02W, výška: 6 m

Aktuální stav počasí

Zpráva byla vytvořena před 13 hodinami a 17 minutami, v 15:55 UTC
Západoseverozápadní vítr 27 kt s nárazy do 32 kt
Teplota 8°C
Vlhkost vzduchu 87%
Tlak 993 hPa
Viditelnost: 9.7 km
Oblačno až skoro zataženo ve výšce 700 ft
Zataženo ve výšce 1300 ft
slabý déšť

METAR: CYPC 171555Z 29027G32KT 6SM -RA BKN007 OVC013 08/06 A2933 RMK ST6SC2 SLP933

Čas: 23:12 (05:12 UTC)


TAF: chybějící

Stav a předpovědi počasí z více než 4 000 letišť (zprávy METAR a TAF).

Červené a žluté tečky na mapě představují dostupné meteorologické stanice.

Když kurzor umístíte na tečku, zobrazí se název stanice.

Pak kliknutím zobrazíte stav a předpověď počasí.

Chcete-li změnit mapu, kliknutím na zelené tlačítko se znaménkem +mapu přiblížíte, kliknutím na zelené tlačítko se znaménkem – mapu oddálíte a kliknutím na zelené šipky přejdete na sousední mapy.


METAR-TAF: